SAS4086 ENGM-ENEV
Flight info
| Callsign | SAS4086 |
|---|---|
| Flight time | N/A |
| Altitude | 35000 |
| Route | RIBBE DCT GIGNI DCT SOMUB DCT RUKEN DCT MUGIF |
| Aircraft | A320/M-SDE3FGHIRWY/LB1 |
Departure
| Time | N/A |
|---|---|
| Airport | Oslo-Gardermoen International Airport (ENGM) |
Arrival
| Time | 2026-04-19 08:19 |
|---|---|
| Airport | Harstad/Narvik Airport (ENEV) |
| Time | Latitude | Longitude | Altitude | Speed | Heading |
|---|---|---|---|---|---|
| 2026-04-19 07:41 | 65.18101 | 12.77139 | 35297 ft | 464 kts | 17° |
| 2026-04-19 07:41 | 65.21243 | 12.78913 | 35307 ft | 465 kts | 17° |
| 2026-04-19 07:42 | 65.27534 | 12.82489 | 35305 ft | 465 kts | 17° |
| 2026-04-19 07:42 | 65.33829 | 12.86064 | 35309 ft | 465 kts | 17° |
| 2026-04-19 07:43 | 65.40127 | 12.89663 | 35285 ft | 465 kts | 17° |
| 2026-04-19 07:43 | 65.46428 | 12.93301 | 35287 ft | 466 kts | 17° |
| 2026-04-19 07:44 | 65.52730 | 12.96961 | 35301 ft | 466 kts | 17° |
| 2026-04-19 07:44 | 65.59036 | 13.00623 | 35315 ft | 466 kts | 17° |
| 2026-04-19 07:45 | 65.65301 | 13.04281 | 35315 ft | 466 kts | 17° |
| 2026-04-19 07:45 | 65.71605 | 13.07986 | 35303 ft | 466 kts | 17° |
| 2026-04-19 07:46 | 65.77913 | 13.11725 | 35293 ft | 467 kts | 17° |
| 2026-04-19 07:46 | 65.84221 | 13.15483 | 35301 ft | 467 kts | 17° |
| 2026-04-19 07:47 | 65.90537 | 13.19244 | 35310 ft | 467 kts | 17° |
| 2026-04-19 07:47 | 65.96853 | 13.23039 | 35314 ft | 467 kts | 17° |
| 2026-04-19 07:48 | 66.03173 | 13.26851 | 35311 ft | 468 kts | 17° |
| 2026-04-19 07:48 | 66.09495 | 13.30677 | 35321 ft | 468 kts | 17° |
| 2026-04-19 07:49 | 66.15813 | 13.34508 | 35323 ft | 467 kts | 17° |
| 2026-04-19 07:49 | 66.22127 | 13.38382 | 35326 ft | 467 kts | 17° |
| 2026-04-19 07:50 | 66.28437 | 13.42260 | 35324 ft | 467 kts | 17° |
| 2026-04-19 07:50 | 66.34752 | 13.46145 | 35319 ft | 468 kts | 17° |
| 2026-04-19 07:51 | 66.41022 | 13.50056 | 35322 ft | 468 kts | 17° |
| 2026-04-19 07:51 | 66.47337 | 13.54002 | 35318 ft | 468 kts | 17° |
| 2026-04-19 07:52 | 66.53651 | 13.57980 | 35320 ft | 468 kts | 17° |
| 2026-04-19 07:52 | 66.59968 | 13.61963 | 35317 ft | 468 kts | 17° |
| 2026-04-19 07:53 | 66.66281 | 13.65964 | 35302 ft | 467 kts | 17° |
| 2026-04-19 07:53 | 66.72581 | 13.69993 | 35305 ft | 467 kts | 17° |
| 2026-04-19 07:54 | 66.78878 | 13.74041 | 35306 ft | 467 kts | 17° |
| 2026-04-19 07:54 | 66.85174 | 13.78094 | 35302 ft | 467 kts | 17° |
| 2026-04-19 07:55 | 66.91463 | 13.82175 | 35304 ft | 467 kts | 17° |
| 2026-04-19 07:55 | 66.97756 | 13.86271 | 35289 ft | 467 kts | 16° |
| 2026-04-19 07:56 | 67.04054 | 13.90385 | 35286 ft | 467 kts | 16° |
| 2026-04-19 07:56 | 67.10361 | 13.94547 | 35287 ft | 468 kts | 16° |
| 2026-04-19 07:57 | 67.16674 | 13.98728 | 35293 ft | 469 kts | 16° |
| 2026-04-19 07:57 | 67.22946 | 14.02898 | 35299 ft | 469 kts | 16° |
| 2026-04-19 07:58 | 67.29259 | 14.07122 | 35286 ft | 469 kts | 16° |
| 2026-04-19 07:58 | 67.35570 | 14.11366 | 35286 ft | 469 kts | 17° |
| 2026-04-19 07:59 | 67.41879 | 14.15643 | 35289 ft | 468 kts | 17° |
| 2026-04-19 07:59 | 67.48183 | 14.19941 | 35296 ft | 468 kts | 17° |
| 2026-04-19 08:00 | 67.54484 | 14.24268 | 35304 ft | 468 kts | 17° |
| 2026-04-19 08:00 | 67.60789 | 14.28613 | 35052 ft | 469 kts | 16° |
| 2026-04-19 08:00 | 67.63947 | 14.30794 | 34685 ft | 470 kts | 17° |
| 2026-04-19 08:01 | 67.66050 | 14.32254 | 34005 ft | 475 kts | 17° |
| 2026-04-19 08:01 | 67.69263 | 14.34489 | 33025 ft | 479 kts | 17° |
| 2026-04-19 08:01 | 67.72485 | 14.36827 | 32049 ft | 481 kts | 21° |
| 2026-04-19 08:01 | 67.75572 | 14.40171 | 31180 ft | 479 kts | 30° |
| 2026-04-19 08:02 | 67.78440 | 14.44619 | 30108 ft | 479 kts | 38° |
| 2026-04-19 08:02 | 67.81074 | 14.49982 | 29254 ft | 474 kts | 42° |
| 2026-04-19 08:02 | 67.84454 | 14.57070 | 28514 ft | 464 kts | 42° |
| 2026-04-19 08:02 | 67.86152 | 14.60639 | 28089 ft | 460 kts | 42° |
| 2026-04-19 08:03 | 67.88642 | 14.65889 | 27447 ft | 455 kts | 42° |
| 2026-04-19 08:03 | 67.91105 | 14.71104 | 26830 ft | 451 kts | 42° |
| 2026-04-19 08:03 | 67.93542 | 14.76283 | 26219 ft | 447 kts | 42° |
| 2026-04-19 08:03 | 67.95959 | 14.81439 | 25603 ft | 443 kts | 42° |
| 2026-04-19 08:04 | 67.98353 | 14.86574 | 24994 ft | 440 kts | 43° |
| 2026-04-19 08:04 | 68.00728 | 14.91679 | 24389 ft | 437 kts | 43° |
| 2026-04-19 08:04 | 68.03061 | 14.96690 | 23783 ft | 435 kts | 43° |
| 2026-04-19 08:04 | 68.05402 | 15.01727 | 23139 ft | 431 kts | 43° |
| 2026-04-19 08:05 | 68.07727 | 15.06745 | 22575 ft | 426 kts | 43° |
| 2026-04-19 08:05 | 68.10020 | 15.11706 | 22008 ft | 422 kts | 43° |
| 2026-04-19 08:05 | 68.12291 | 15.16633 | 21476 ft | 418 kts | 43° |
| 2026-04-19 08:05 | 68.14541 | 15.21531 | 20940 ft | 415 kts | 43° |
| 2026-04-19 08:06 | 68.16774 | 15.26414 | 20440 ft | 412 kts | 43° |
| 2026-04-19 08:06 | 68.18988 | 15.31275 | 19934 ft | 410 kts | 43° |
| 2026-04-19 08:06 | 68.21193 | 15.36120 | 19423 ft | 408 kts | 43° |
| 2026-04-19 08:06 | 68.23389 | 15.40938 | 18903 ft | 406 kts | 42° |
| 2026-04-19 08:07 | 68.25580 | 15.45742 | 18334 ft | 405 kts | 42° |
| 2026-04-19 08:07 | 68.27758 | 15.50522 | 17779 ft | 402 kts | 42° |
| 2026-04-19 08:07 | 68.29917 | 15.55268 | 17217 ft | 399 kts | 41° |
| 2026-04-19 08:07 | 68.32056 | 15.59985 | 16668 ft | 395 kts | 41° |
| 2026-04-19 08:08 | 68.34174 | 15.64679 | 16114 ft | 392 kts | 41° |
| 2026-04-19 08:08 | 68.36275 | 15.69358 | 15523 ft | 390 kts | 41° |
| 2026-04-19 08:08 | 68.38362 | 15.74021 | 14954 ft | 387 kts | 41° |
| 2026-04-19 08:08 | 68.40433 | 15.78655 | 14378 ft | 385 kts | 40° |
| 2026-04-19 08:09 | 68.42494 | 15.83271 | 13765 ft | 383 kts | 40° |
| 2026-04-19 08:09 | 68.44538 | 15.87860 | 13162 ft | 379 kts | 40° |
| 2026-04-19 08:09 | 68.46563 | 15.92414 | 12600 ft | 376 kts | 40° |
| 2026-04-19 08:09 | 68.48566 | 15.96930 | 12029 ft | 373 kts | 40° |
| 2026-04-19 08:10 | 68.50554 | 16.01418 | 11468 ft | 370 kts | 40° |
| 2026-04-19 08:10 | 68.52523 | 16.05876 | 10971 ft | 364 kts | 41° |
| 2026-04-19 08:10 | 68.54427 | 16.10205 | 10843 ft | 349 kts | 41° |
| 2026-04-19 08:10 | 68.56255 | 16.14355 | 10716 ft | 335 kts | 41° |
| 2026-04-19 08:11 | 68.58050 | 16.18252 | 10590 ft | 324 kts | 34° |
| 2026-04-19 08:11 | 68.60012 | 16.21025 | 10469 ft | 314 kts | 20° |
| 2026-04-19 08:11 | 68.62068 | 16.22795 | 10305 ft | 306 kts | 17° |
| 2026-04-19 08:11 | 68.64091 | 16.24489 | 9896 ft | 307 kts | 17° |
| 2026-04-19 08:12 | 68.66139 | 16.26219 | 9554 ft | 304 kts | 17° |
| 2026-04-19 08:12 | 68.68134 | 16.27912 | 8999 ft | 298 kts | 17° |
| 2026-04-19 08:12 | 68.70088 | 16.29568 | 8622 ft | 286 kts | 18° |
| 2026-04-19 08:12 | 68.71841 | 16.31760 | 8279 ft | 273 kts | 37° |
| 2026-04-19 08:13 | 68.73172 | 16.35346 | 7818 ft | 265 kts | 57° |
| 2026-04-19 08:13 | 68.73974 | 16.39870 | 7277 ft | 261 kts | 76° |
| 2026-04-19 08:13 | 68.74207 | 16.44767 | 6819 ft | 256 kts | 89° |
| 2026-04-19 08:13 | 68.74285 | 16.49720 | 6131 ft | 261 kts | 89° |
| 2026-04-19 08:14 | 68.74105 | 16.54605 | 5836 ft | 254 kts | 107° |
| 2026-04-19 08:14 | 68.72279 | 16.62236 | 5560 ft | 234 kts | 142° |
| 2026-04-19 08:14 | 68.70892 | 16.64477 | 5282 ft | 231 kts | 160° |
| 2026-04-19 08:15 | 68.69333 | 16.65475 | 4925 ft | 232 kts | 176° |
| 2026-04-19 08:15 | 68.67712 | 16.65669 | 4520 ft | 234 kts | 178° |
| 2026-04-19 08:15 | 68.66073 | 16.65855 | 4111 ft | 237 kts | 178° |
| 2026-04-19 08:15 | 68.64450 | 16.66043 | 3698 ft | 229 kts | 178° |
| 2026-04-19 08:16 | 68.62879 | 16.66226 | 3315 ft | 223 kts | 178° |
| 2026-04-19 08:16 | 68.61381 | 16.66399 | 2932 ft | 209 kts | 178° |
| 2026-04-19 08:16 | 68.59957 | 16.66564 | 2570 ft | 201 kts | 177° |
| 2026-04-19 08:16 | 68.58600 | 16.66721 | 2248 ft | 187 kts | 177° |
| 2026-04-19 08:17 | 68.57358 | 16.66864 | 1923 ft | 173 kts | 177° |
| 2026-04-19 08:17 | 68.56201 | 16.66997 | 1612 ft | 160 kts | 176° |
| 2026-04-19 08:17 | 68.55160 | 16.67114 | 1325 ft | 142 kts | 176° |
| 2026-04-19 08:17 | 68.54198 | 16.67202 | 1054 ft | 136 kts | 177° |
| 2026-04-19 08:18 | 68.53256 | 16.67315 | 855 ft | 134 kts | 174° |
| 2026-04-19 08:18 | 68.52329 | 16.67435 | 637 ft | 133 kts | 175° |
| 2026-04-19 08:18 | 68.51398 | 16.67560 | 355 ft | 133 kts | 174° |
| 2026-04-19 08:18 | 68.50466 | 16.67657 | 167 ft | 135 kts | 175° |
| 2026-04-19 08:19 | 68.49575 | 16.67771 | 95 ft | 110 kts | 178° |
| 2026-04-19 08:19 | 68.48987 | 16.67837 | 98 ft | 58 kts | 178° |
| 2026-04-19 08:19 | 68.48635 | 16.67870 | 93 ft | 38 kts | 177° |
| 2026-04-19 08:19 | 68.48475 | 16.67884 | 95 ft | 13 kts | 176° |
| 2026-04-19 08:20 | 68.48436 | 16.68027 | 92 ft | 12 kts | 92° |
| 2026-04-19 08:20 | 68.48443 | 16.68193 | 100 ft | 6 kts | 78° |
| 2026-04-19 08:20 | 68.48464 | 16.68246 | 102 ft | 5 kts | 21° |
| 2026-04-19 08:20 | 68.48527 | 16.68251 | 98 ft | 13 kts | 359° |
| 2026-04-19 08:21 | 68.48641 | 16.68238 | 93 ft | 17 kts | 356° |
| 2026-04-19 08:21 | 68.48758 | 16.68229 | 88 ft | 19 kts | 358° |
| 2026-04-19 08:21 | 68.48868 | 16.68222 | 87 ft | 10 kts | 13° |
| 2026-04-19 08:21 | 68.48890 | 16.68373 | 92 ft | 9 kts | 87° |
| 2026-04-19 08:22 | 68.48893 | 16.68529 | 93 ft | 8 kts | 88° |
| 2026-04-19 08:22 | 68.48895 | 16.68697 | 92 ft | 6 kts | 86° |
| 2026-04-19 08:22 | 68.48929 | 16.68720 | 93 ft | 8 kts | 353° |
| 2026-04-19 08:22 | 68.48972 | 16.68716 | 92 ft | 5 kts | 358° |
| 2026-04-19 08:23 | 68.48985 | 16.68714 | 92 ft | 0 kts | 358° |